sensor_id;sensor_type;location;lat;lon;timestamp;P1;durP1;ratioP1;P2;durP2;ratioP2
65375;SDS011;51976;47.332;9.404;2023-02-28T00:00:05;5.90;;;4.90;;
65375;SDS011;51976;47.332;9.404;2023-02-28T00:02:37;6.47;;;4.53;;
65375;SDS011;51976;47.332;9.404;2023-02-28T00:05:03;8.45;;;4.95;;
65375;SDS011;51976;47.332;9.404;2023-02-28T00:07:30;9.32;;;5.30;;
65375;SDS011;51976;47.332;9.404;2023-02-28T00:09:55;7.35;;;4.72;;
65375;SDS011;51976;47.332;9.404;2023-02-28T00:12:21;5.95;;;4.57;;
65375;SDS011;51976;47.332;9.404;2023-02-28T00:14:46;6.95;;;4.75;;
65375;SDS011;51976;47.332;9.404;2023-02-28T00:17:12;7.50;;;5.20;;
65375;SDS011;51976;47.332;9.404;2023-02-28T00:19:37;7.07;;;4.93;;
65375;SDS011;51976;47.332;9.404;2023-02-28T00:22:02;5.95;;;4.90;;
65375;SDS011;51976;47.332;9.404;2023-02-28T00:24:28;8.25;;;4.88;;
65375;SDS011;51976;47.332;9.404;2023-02-28T00:26:53;7.05;;;4.90;;
65375;SDS011;51976;47.332;9.404;2023-02-28T00:29:19;7.32;;;5.22;;
65375;SDS011;51976;47.332;9.404;2023-02-28T00:31:44;7.38;;;4.88;;
65375;SDS011;51976;47.332;9.404;2023-02-28T00:34:09;6.93;;;4.60;;
65375;SDS011;51976;47.332;9.404;2023-02-28T00:36:35;7.35;;;4.90;;
65375;SDS011;51976;47.332;9.404;2023-02-28T00:39:00;7.40;;;5.10;;
65375;SDS011;51976;47.332;9.404;2023-02-28T00:41:26;7.70;;;4.75;;
65375;SDS011;51976;47.332;9.404;2023-02-28T00:43:51;6.93;;;4.78;;
65375;SDS011;51976;47.332;9.404;2023-02-28T00:46:16;7.07;;;4.93;;
65375;SDS011;51976;47.332;9.404;2023-02-28T00:48:42;7.65;;;5.03;;
65375;SDS011;51976;47.332;9.404;2023-02-28T00:51:07;6.82;;;4.97;;
65375;SDS011;51976;47.332;9.404;2023-02-28T00:53:33;6.28;;;5.15;;
65375;SDS011;51976;47.332;9.404;2023-02-28T00:55:58;6.05;;;5.20;;
65375;SDS011;51976;47.332;9.404;2023-02-28T00:58:24;9.30;;;5.03;;
65375;SDS011;51976;47.332;9.404;2023-02-28T01:00:50;7.38;;;4.95;;
65375;SDS011;51976;47.332;9.404;2023-02-28T01:03:17;8.60;;;5.32;;
65375;SDS011;51976;47.332;9.404;2023-02-28T01:05:44;5.53;;;4.70;;
65375;SDS011;51976;47.332;9.404;2023-02-28T01:08:10;6.10;;;4.90;;
65375;SDS011;51976;47.332;9.404;2023-02-28T01:10:35;6.68;;;5.07;;
65375;SDS011;51976;47.332;9.404;2023-02-28T01:13:01;8.02;;;5.82;;
65375;SDS011;51976;47.332;9.404;2023-02-28T01:15:27;7.22;;;5.28;;
65375;SDS011;51976;47.332;9.404;2023-02-28T01:17:52;7.85;;;5.32;;
65375;SDS011;51976;47.332;9.404;2023-02-28T01:20:18;6.55;;;5.53;;
65375;SDS011;51976;47.332;9.404;2023-02-28T01:22:43;6.60;;;5.35;;
65375;SDS011;51976;47.332;9.404;2023-02-28T01:25:09;8.70;;;5.90;;
65375;SDS011;51976;47.332;9.404;2023-02-28T01:27:34;15.85;;;7.28;;
65375;SDS011;51976;47.332;9.404;2023-02-28T01:30:00;10.30;;;7.25;;
65375;SDS011;51976;47.332;9.404;2023-02-28T01:32:26;11.02;;;6.47;;
65375;SDS011;51976;47.332;9.404;2023-02-28T01:34:51;10.00;;;6.35;;
65375;SDS011;51976;47.332;9.404;2023-02-28T01:37:17;11.88;;;6.50;;
65375;SDS011;51976;47.332;9.404;2023-02-28T01:39:42;11.75;;;5.95;;
65375;SDS011;51976;47.332;9.404;2023-02-28T01:42:08;8.07;;;6.25;;
65375;SDS011;51976;47.332;9.404;2023-02-28T01:47:27;8.13;;;5.55;;
65375;SDS011;51976;47.332;9.404;2023-02-28T01:49:56;6.97;;;5.63;;
65375;SDS011;51976;47.332;9.404;2023-02-28T01:52:23;7.28;;;5.45;;
65375;SDS011;51976;47.332;9.404;2023-02-28T01:54:51;6.22;;;5.25;;
65375;SDS011;51976;47.332;9.404;2023-02-28T01:57:20;8.88;;;5.95;;
65375;SDS011;51976;47.332;9.404;2023-02-28T01:59:53;10.43;;;5.70;;
65375;SDS011;51976;47.332;9.404;2023-02-28T02:02:23;10.57;;;5.68;;
65375;SDS011;51976;47.332;9.404;2023-02-28T02:04:53;6.82;;;5.95;;
65375;SDS011;51976;47.332;9.404;2023-02-28T02:07:22;7.00;;;5.93;;
65375;SDS011;51976;47.332;9.404;2023-02-28T02:10:01;10.40;;;5.95;;
65375;SDS011;51976;47.332;9.404;2023-02-28T02:12:47;7.47;;;6.30;;
65375;SDS011;51976;47.332;9.404;2023-02-28T02:15:47;6.82;;;5.53;;
65375;SDS011;51976;47.332;9.404;2023-02-28T02:18:42;7.15;;;5.25;;
65375;SDS011;51976;47.332;9.404;2023-02-28T02:21:18;7.40;;;5.80;;
65375;SDS011;51976;47.332;9.404;2023-02-28T02:24:32;10.07;;;5.63;;
65375;SDS011;51976;47.332;9.404;2023-02-28T02:27:18;7.25;;;5.50;;
65375;SDS011;51976;47.332;9.404;2023-02-28T02:30:19;7.70;;;5.50;;
65375;SDS011;51976;47.332;9.404;2023-02-28T02:33:02;9.20;;;6.10;;
65375;SDS011;51976;47.332;9.404;2023-02-28T02:35:39;8.88;;;6.22;;
65375;SDS011;51976;47.332;9.404;2023-02-28T02:38:33;8.38;;;6.13;;
65375;SDS011;51976;47.332;9.404;2023-02-28T02:41:14;10.57;;;6.72;;
65375;SDS011;51976;47.332;9.404;2023-02-28T02:43:56;12.23;;;7.43;;
65375;SDS011;51976;47.332;9.404;2023-02-28T02:46:45;8.20;;;6.35;;
65375;SDS011;51976;47.332;9.404;2023-02-28T02:49:15;10.48;;;6.53;;
65375;SDS011;51976;47.332;9.404;2023-02-28T02:51:46;9.40;;;6.53;;
65375;SDS011;51976;47.332;9.404;2023-02-28T02:54:14;10.30;;;7.50;;
65375;SDS011;51976;47.332;9.404;2023-02-28T02:56:45;10.82;;;6.80;;
65375;SDS011;51976;47.332;9.404;2023-02-28T02:59:13;9.10;;;6.75;;
65375;SDS011;51976;47.332;9.404;2023-02-28T03:01:46;8.32;;;6.45;;
65375;SDS011;51976;47.332;9.404;2023-02-28T03:04:19;7.20;;;5.93;;
65375;SDS011;51976;47.332;9.404;2023-02-28T03:06:47;8.30;;;6.03;;
65375;SDS011;51976;47.332;9.404;2023-02-28T03:09:13;7.75;;;5.93;;
65375;SDS011;51976;47.332;9.404;2023-02-28T03:11:38;8.25;;;6.35;;
65375;SDS011;51976;47.332;9.404;2023-02-28T03:14:09;8.55;;;6.18;;
65375;SDS011;51976;47.332;9.404;2023-02-28T03:17:16;9.23;;;6.80;;
65375;SDS011;51976;47.332;9.404;2023-02-28T03:20:01;9.23;;;6.43;;
65375;SDS011;51976;47.332;9.404;2023-02-28T03:22:50;7.43;;;6.40;;
65375;SDS011;51976;47.332;9.404;2023-02-28T03:25:39;10.38;;;6.68;;
65375;SDS011;51976;47.332;9.404;2023-02-28T03:28:22;10.38;;;7.13;;
65375;SDS011;51976;47.332;9.404;2023-02-28T03:31:00;10.77;;;7.13;;
65375;SDS011;51976;47.332;9.404;2023-02-28T03:33:36;9.55;;;6.60;;
65375;SDS011;51976;47.332;9.404;2023-02-28T03:36:15;8.30;;;6.43;;
65375;SDS011;51976;47.332;9.404;2023-02-28T03:38:49;9.98;;;7.10;;
65375;SDS011;51976;47.332;9.404;2023-02-28T03:41:21;9.07;;;6.20;;
65375;SDS011;51976;47.332;9.404;2023-02-28T03:43:58;10.60;;;6.60;;
65375;SDS011;51976;47.332;9.404;2023-02-28T03:46:28;9.27;;;6.65;;
65375;SDS011;51976;47.332;9.404;2023-02-28T03:49:02;9.38;;;6.68;;
65375;SDS011;51976;47.332;9.404;2023-02-28T03:51:34;11.20;;;7.22;;
65375;SDS011;51976;47.332;9.404;2023-02-28T03:54:05;7.60;;;6.35;;
65375;SDS011;51976;47.332;9.404;2023-02-28T03:56:40;8.52;;;6.07;;
65375;SDS011;51976;47.332;9.404;2023-02-28T03:59:13;9.13;;;7.00;;
65375;SDS011;51976;47.332;9.404;2023-02-28T04:01:44;10.90;;;7.22;;
65375;SDS011;51976;47.332;9.404;2023-02-28T04:04:11;11.57;;;7.50;;
65375;SDS011;51976;47.332;9.404;2023-02-28T04:06:38;10.48;;;6.85;;
65375;SDS011;51976;47.332;9.404;2023-02-28T04:09:04;8.05;;;6.00;;
65375;SDS011;51976;47.332;9.404;2023-02-28T04:11:40;9.10;;;5.85;;
65375;SDS011;51976;47.332;9.404;2023-02-28T04:14:09;7.55;;;5.93;;
65375;SDS011;51976;47.332;9.404;2023-02-28T04:16:37;9.52;;;6.30;;
65375;SDS011;51976;47.332;9.404;2023-02-28T04:19:05;9.65;;;6.97;;
65375;SDS011;51976;47.332;9.404;2023-02-28T04:21:34;8.77;;;6.28;;
65375;SDS011;51976;47.332;9.404;2023-02-28T04:24:01;8.85;;;6.90;;
65375;SDS011;51976;47.332;9.404;2023-02-28T04:26:28;8.77;;;6.70;;
65375;SDS011;51976;47.332;9.404;2023-02-28T04:28:55;15.57;;;7.55;;
65375;SDS011;51976;47.332;9.404;2023-02-28T04:31:21;9.73;;;7.40;;
65375;SDS011;51976;47.332;9.404;2023-02-28T04:33:46;10.20;;;7.07;;
65375;SDS011;51976;47.332;9.404;2023-02-28T04:36:12;11.02;;;6.45;;
65375;SDS011;51976;47.332;9.404;2023-02-28T04:38:39;9.15;;;6.70;;
65375;SDS011;51976;47.332;9.404;2023-02-28T04:41:04;10.55;;;6.93;;
65375;SDS011;51976;47.332;9.404;2023-02-28T04:43:30;9.88;;;6.78;;
65375;SDS011;51976;47.332;9.404;2023-02-28T04:45:56;11.27;;;6.82;;
65375;SDS011;51976;47.332;9.404;2023-02-28T04:48:23;10.98;;;6.45;;
65375;SDS011;51976;47.332;9.404;2023-02-28T04:50:49;9.70;;;6.53;;
65375;SDS011;51976;47.332;9.404;2023-02-28T04:53:15;8.50;;;6.60;;
65375;SDS011;51976;47.332;9.404;2023-02-28T04:55:41;9.43;;;7.03;;
65375;SDS011;51976;47.332;9.404;2023-02-28T04:58:06;12.43;;;5.97;;
65375;SDS011;51976;47.332;9.404;2023-02-28T05:00:31;10.00;;;6.47;;
65375;SDS011;51976;47.332;9.404;2023-02-28T05:02:57;11.27;;;7.60;;
65375;SDS011;51976;47.332;9.404;2023-02-28T05:05:22;10.82;;;6.72;;
65375;SDS011;51976;47.332;9.404;2023-02-28T05:07:48;8.70;;;6.65;;
65375;SDS011;51976;47.332;9.404;2023-02-28T05:10:13;8.43;;;6.63;;
65375;SDS011;51976;47.332;9.404;2023-02-28T05:12:38;11.90;;;6.97;;
65375;SDS011;51976;47.332;9.404;2023-02-28T05:15:04;10.88;;;6.88;;
65375;SDS011;51976;47.332;9.404;2023-02-28T05:17:30;9.52;;;6.75;;
65375;SDS011;51976;47.332;9.404;2023-02-28T05:19:56;9.60;;;6.95;;
65375;SDS011;51976;47.332;9.404;2023-02-28T05:22:21;8.43;;;6.80;;
65375;SDS011;51976;47.332;9.404;2023-02-28T05:24:47;11.30;;;6.68;;
65375;SDS011;51976;47.332;9.404;2023-02-28T05:27:12;8.05;;;6.85;;
65375;SDS011;51976;47.332;9.404;2023-02-28T05:29:37;10.52;;;7.05;;
65375;SDS011;51976;47.332;9.404;2023-02-28T05:32:08;11.88;;;7.03;;
65375;SDS011;51976;47.332;9.404;2023-02-28T05:34:35;12.02;;;6.82;;
65375;SDS011;51976;47.332;9.404;2023-02-28T05:37:01;10.27;;;6.80;;
65375;SDS011;51976;47.332;9.404;2023-02-28T05:39:27;8.63;;;7.03;;
65375;SDS011;51976;47.332;9.404;2023-02-28T05:41:52;8.82;;;6.60;;
65375;SDS011;51976;47.332;9.404;2023-02-28T05:44:18;11.18;;;7.22;;
65375;SDS011;51976;47.332;9.404;2023-02-28T05:46:43;11.57;;;7.07;;
65375;SDS011;51976;47.332;9.404;2023-02-28T05:49:08;9.68;;;7.65;;
65375;SDS011;51976;47.332;9.404;2023-02-28T05:51:34;10.98;;;6.90;;
65375;SDS011;51976;47.332;9.404;2023-02-28T05:54:01;9.25;;;6.78;;
65375;SDS011;51976;47.332;9.404;2023-02-28T05:56:27;9.15;;;7.22;;
65375;SDS011;51976;47.332;9.404;2023-02-28T05:58:53;9.85;;;7.13;;
65375;SDS011;51976;47.332;9.404;2023-02-28T06:01:20;8.57;;;6.82;;
65375;SDS011;51976;47.332;9.404;2023-02-28T06:03:50;10.20;;;7.20;;
65375;SDS011;51976;47.332;9.404;2023-02-28T06:06:15;11.95;;;7.95;;
65375;SDS011;51976;47.332;9.404;2023-02-28T06:08:41;10.90;;;7.72;;
65375;SDS011;51976;47.332;9.404;2023-02-28T06:11:08;11.05;;;7.70;;
65375;SDS011;51976;47.332;9.404;2023-02-28T06:13:33;11.73;;;7.55;;
65375;SDS011;51976;47.332;9.404;2023-02-28T06:16:01;14.02;;;8.02;;
65375;SDS011;51976;47.332;9.404;2023-02-28T06:18:27;11.10;;;7.22;;
65375;SDS011;51976;47.332;9.404;2023-02-28T06:20:53;9.95;;;7.57;;
65375;SDS011;51976;47.332;9.404;2023-02-28T06:23:19;10.90;;;7.60;;
65375;SDS011;51976;47.332;9.404;2023-02-28T06:25:45;12.82;;;7.43;;
65375;SDS011;51976;47.332;9.404;2023-02-28T06:28:11;12.75;;;7.05;;
65375;SDS011;51976;47.332;9.404;2023-02-28T06:30:37;13.63;;;7.25;;
65375;SDS011;51976;47.332;9.404;2023-02-28T06:33:03;15.60;;;8.73;;
65375;SDS011;51976;47.332;9.404;2023-02-28T06:35:28;10.27;;;7.22;;
65375;SDS011;51976;47.332;9.404;2023-02-28T06:37:54;10.05;;;7.03;;
65375;SDS011;51976;47.332;9.404;2023-02-28T06:40:19;11.70;;;7.13;;
65375;SDS011;51976;47.332;9.404;2023-02-28T06:42:45;12.07;;;7.82;;
65375;SDS011;51976;47.332;9.404;2023-02-28T06:45:11;10.05;;;7.70;;
65375;SDS011;51976;47.332;9.404;2023-02-28T06:47:37;12.73;;;7.57;;
65375;SDS011;51976;47.332;9.404;2023-02-28T06:50:04;10.25;;;7.53;;
65375;SDS011;51976;47.332;9.404;2023-02-28T06:52:31;9.43;;;7.03;;
65375;SDS011;51976;47.332;9.404;2023-02-28T06:54:57;10.95;;;7.60;;
65375;SDS011;51976;47.332;9.404;2023-02-28T06:57:28;13.68;;;8.25;;
65375;SDS011;51976;47.332;9.404;2023-02-28T06:59:56;12.80;;;7.82;;
65375;SDS011;51976;47.332;9.404;2023-02-28T07:02:23;12.40;;;8.02;;
65375;SDS011;51976;47.332;9.404;2023-02-28T07:04:48;14.35;;;8.02;;
65375;SDS011;51976;47.332;9.404;2023-02-28T07:07:14;13.07;;;8.40;;
65375;SDS011;51976;47.332;9.404;2023-02-28T07:09:42;11.52;;;7.97;;
65375;SDS011;51976;47.332;9.404;2023-02-28T07:12:07;12.27;;;7.85;;
65375;SDS011;51976;47.332;9.404;2023-02-28T07:14:33;14.75;;;8.20;;
65375;SDS011;51976;47.332;9.404;2023-02-28T07:16:58;10.80;;;8.13;;
65375;SDS011;51976;47.332;9.404;2023-02-28T07:19:23;10.57;;;7.45;;
65375;SDS011;51976;47.332;9.404;2023-02-28T07:21:49;10.63;;;7.55;;
65375;SDS011;51976;47.332;9.404;2023-02-28T07:24:17;10.55;;;8.07;;
65375;SDS011;51976;47.332;9.404;2023-02-28T07:26:43;12.45;;;8.25;;
65375;SDS011;51976;47.332;9.404;2023-02-28T07:29:08;12.00;;;8.15;;
65375;SDS011;51976;47.332;9.404;2023-02-28T07:31:34;11.55;;;8.27;;
65375;SDS011;51976;47.332;9.404;2023-02-28T07:33:59;9.77;;;8.00;;
65375;SDS011;51976;47.332;9.404;2023-02-28T07:36:25;14.05;;;8.32;;
65375;SDS011;51976;47.332;9.404;2023-02-28T07:38:50;14.00;;;7.95;;
65375;SDS011;51976;47.332;9.404;2023-02-28T07:41:16;12.85;;;9.07;;
65375;SDS011;51976;47.332;9.404;2023-02-28T07:43:43;10.63;;;8.23;;
65375;SDS011;51976;47.332;9.404;2023-02-28T07:46:10;11.02;;;7.57;;
65375;SDS011;51976;47.332;9.404;2023-02-28T07:48:40;10.93;;;7.38;;
65375;SDS011;51976;47.332;9.404;2023-02-28T07:51:06;12.80;;;8.15;;
65375;SDS011;51976;47.332;9.404;2023-02-28T07:53:32;12.82;;;8.32;;
65375;SDS011;51976;47.332;9.404;2023-02-28T07:55:58;12.88;;;8.88;;
65375;SDS011;51976;47.332;9.404;2023-02-28T07:58:25;11.80;;;8.13;;
65375;SDS011;51976;47.332;9.404;2023-02-28T08:00:52;12.20;;;9.05;;
65375;SDS011;51976;47.332;9.404;2023-02-28T08:03:17;13.30;;;9.82;;
65375;SDS011;51976;47.332;9.404;2023-02-28T08:05:45;12.68;;;8.57;;
65375;SDS011;51976;47.332;9.404;2023-02-28T08:08:10;17.27;;;9.65;;
65375;SDS011;51976;47.332;9.404;2023-02-28T08:10:36;11.88;;;9.32;;
65375;SDS011;51976;47.332;9.404;2023-02-28T08:13:02;15.43;;;9.95;;
65375;SDS011;51976;47.332;9.404;2023-02-28T08:15:27;14.10;;;9.43;;
65375;SDS011;51976;47.332;9.404;2023-02-28T08:17:52;14.60;;;9.93;;
65375;SDS011;51976;47.332;9.404;2023-02-28T08:20:18;16.80;;;11.02;;
65375;SDS011;51976;47.332;9.404;2023-02-28T08:22:44;14.70;;;10.20;;
65375;SDS011;51976;47.332;9.404;2023-02-28T08:25:10;21.65;;;13.82;;
65375;SDS011;51976;47.332;9.404;2023-02-28T08:27:35;18.75;;;12.52;;
65375;SDS011;51976;47.332;9.404;2023-02-28T08:30:01;17.90;;;12.30;;
65375;SDS011;51976;47.332;9.404;2023-02-28T08:32:28;14.25;;;9.90;;
65375;SDS011;51976;47.332;9.404;2023-02-28T08:34:53;14.68;;;11.07;;
65375;SDS011;51976;47.332;9.404;2023-02-28T08:37:20;22.15;;;12.95;;
65375;SDS011;51976;47.332;9.404;2023-02-28T08:39:45;15.68;;;11.23;;
65375;SDS011;51976;47.332;9.404;2023-02-28T08:42:11;16.90;;;10.70;;
65375;SDS011;51976;47.332;9.404;2023-02-28T08:44:36;17.80;;;11.27;;
65375;SDS011;51976;47.332;9.404;2023-02-28T08:47:02;16.73;;;10.43;;
65375;SDS011;51976;47.332;9.404;2023-02-28T08:49:27;20.20;;;11.23;;
65375;SDS011;51976;47.332;9.404;2023-02-28T08:51:53;20.60;;;11.70;;
65375;SDS011;51976;47.332;9.404;2023-02-28T08:54:20;21.02;;;10.63;;
65375;SDS011;51976;47.332;9.404;2023-02-28T08:56:46;19.17;;;11.68;;
65375;SDS011;51976;47.332;9.404;2023-02-28T08:59:14;18.75;;;11.68;;
65375;SDS011;51976;47.332;9.404;2023-02-28T09:01:39;24.20;;;13.18;;
65375;SDS011;51976;47.332;9.404;2023-02-28T09:04:06;20.63;;;10.57;;
65375;SDS011;51976;47.332;9.404;2023-02-28T09:06:33;15.45;;;9.50;;
65375;SDS011;51976;47.332;9.404;2023-02-28T09:08:59;18.60;;;9.48;;
65375;SDS011;51976;47.332;9.404;2023-02-28T09:11:26;14.48;;;9.10;;
65375;SDS011;51976;47.332;9.404;2023-02-28T09:13:51;17.15;;;10.75;;
65375;SDS011;51976;47.332;9.404;2023-02-28T09:16:17;17.70;;;9.18;;
65375;SDS011;51976;47.332;9.404;2023-02-28T09:18:42;19.70;;;9.95;;
65375;SDS011;51976;47.332;9.404;2023-02-28T09:21:10;13.70;;;8.50;;
65375;SDS011;51976;47.332;9.404;2023-02-28T09:23:43;16.60;;;9.20;;
65375;SDS011;51976;47.332;9.404;2023-02-28T09:26:15;15.23;;;8.65;;
65375;SDS011;51976;47.332;9.404;2023-02-28T09:28:42;14.48;;;9.75;;
65375;SDS011;51976;47.332;9.404;2023-02-28T09:31:15;14.88;;;9.43;;
65375;SDS011;51976;47.332;9.404;2023-02-28T09:33:45;15.02;;;9.18;;
65375;SDS011;51976;47.332;9.404;2023-02-28T09:36:11;13.73;;;9.27;;
65375;SDS011;51976;47.332;9.404;2023-02-28T09:38:37;12.18;;;7.63;;
65375;SDS011;51976;47.332;9.404;2023-02-28T09:41:03;11.90;;;7.60;;
65375;SDS011;51976;47.332;9.404;2023-02-28T09:43:38;13.23;;;8.45;;
65375;SDS011;51976;47.332;9.404;2023-02-28T09:46:08;16.08;;;8.75;;
65375;SDS011;51976;47.332;9.404;2023-02-28T09:48:56;14.07;;;7.82;;
65375;SDS011;51976;47.332;9.404;2023-02-28T09:51:28;12.05;;;7.40;;
65375;SDS011;51976;47.332;9.404;2023-02-28T09:54:00;10.93;;;7.65;;
65375;SDS011;51976;47.332;9.404;2023-02-28T09:56:28;11.45;;;8.13;;
65375;SDS011;51976;47.332;9.404;2023-02-28T09:59:09;15.38;;;7.95;;
65375;SDS011;51976;47.332;9.404;2023-02-28T10:02:10;11.38;;;8.02;;
65375;SDS011;51976;47.332;9.404;2023-02-28T10:04:59;16.90;;;9.88;;
65375;SDS011;51976;47.332;9.404;2023-02-28T10:07:37;14.57;;;8.48;;
65375;SDS011;51976;47.332;9.404;2023-02-28T10:10:17;15.13;;;9.10;;
65375;SDS011;51976;47.332;9.404;2023-02-28T10:12:49;15.63;;;9.13;;
65375;SDS011;51976;47.332;9.404;2023-02-28T10:15:21;14.38;;;9.07;;
65375;SDS011;51976;47.332;9.404;2023-02-28T10:17:50;14.48;;;8.07;;
65375;SDS011;51976;47.332;9.404;2023-02-28T10:20:21;16.67;;;9.52;;
65375;SDS011;51976;47.332;9.404;2023-02-28T10:23:17;17.42;;;8.88;;
65375;SDS011;51976;47.332;9.404;2023-02-28T10:26:03;14.15;;;8.80;;
65375;SDS011;51976;47.332;9.404;2023-02-28T10:28:36;16.55;;;9.60;;
65375;SDS011;51976;47.332;9.404;2023-02-28T10:31:01;16.92;;;9.43;;
65375;SDS011;51976;47.332;9.404;2023-02-28T10:33:31;14.88;;;8.75;;
65375;SDS011;51976;47.332;9.404;2023-02-28T10:36:02;15.68;;;9.95;;
65375;SDS011;51976;47.332;9.404;2023-02-28T10:38:36;13.68;;;9.20;;
65375;SDS011;51976;47.332;9.404;2023-02-28T10:41:07;12.95;;;9.15;;
65375;SDS011;51976;47.332;9.404;2023-02-28T10:43:34;14.02;;;8.73;;
65375;SDS011;51976;47.332;9.404;2023-02-28T10:46:04;16.92;;;8.35;;
65375;SDS011;51976;47.332;9.404;2023-02-28T10:48:40;16.63;;;9.10;;
65375;SDS011;51976;47.332;9.404;2023-02-28T10:51:14;16.88;;;7.88;;
65375;SDS011;51976;47.332;9.404;2023-02-28T10:53:48;14.98;;;8.95;;
65375;SDS011;51976;47.332;9.404;2023-02-28T10:56:17;12.90;;;8.88;;
65375;SDS011;51976;47.332;9.404;2023-02-28T10:58:53;13.30;;;7.97;;
65375;SDS011;51976;47.332;9.404;2023-02-28T11:01:42;12.63;;;8.50;;
65375;SDS011;51976;47.332;9.404;2023-02-28T11:04:20;12.73;;;8.23;;
65375;SDS011;51976;47.332;9.404;2023-02-28T11:07:19;14.18;;;7.90;;
65375;SDS011;51976;47.332;9.404;2023-02-28T11:09:52;18.23;;;8.25;;
65375;SDS011;51976;47.332;9.404;2023-02-28T11:12:20;11.32;;;7.53;;
65375;SDS011;51976;47.332;9.404;2023-02-28T11:15:02;11.25;;;7.63;;
65375;SDS011;51976;47.332;9.404;2023-02-28T11:17:31;10.93;;;8.02;;
65375;SDS011;51976;47.332;9.404;2023-02-28T11:19:59;11.52;;;8.20;;
65375;SDS011;51976;47.332;9.404;2023-02-28T11:22:29;12.35;;;8.60;;
65375;SDS011;51976;47.332;9.404;2023-02-28T11:24:59;11.43;;;8.35;;
65375;SDS011;51976;47.332;9.404;2023-02-28T11:27:47;12.18;;;7.35;;
65375;SDS011;51976;47.332;9.404;2023-02-28T11:30:24;11.27;;;8.48;;
65375;SDS011;51976;47.332;9.404;2023-02-28T11:32:51;14.55;;;8.40;;
65375;SDS011;51976;47.332;9.404;2023-02-28T11:35:17;13.57;;;7.65;;
65375;SDS011;51976;47.332;9.404;2023-02-28T11:37:51;13.70;;;8.75;;
65375;SDS011;51976;47.332;9.404;2023-02-28T11:40:28;13.57;;;8.75;;
65375;SDS011;51976;47.332;9.404;2023-02-28T11:43:09;11.50;;;7.78;;
65375;SDS011;51976;47.332;9.404;2023-02-28T11:45:59;12.70;;;8.05;;
65375;SDS011;51976;47.332;9.404;2023-02-28T11:52:02;10.57;;;7.88;;
65375;SDS011;51976;47.332;9.404;2023-02-28T11:54:46;12.82;;;8.38;;
65375;SDS011;51976;47.332;9.404;2023-02-28T11:57:57;11.68;;;8.07;;
65375;SDS011;51976;47.332;9.404;2023-02-28T12:01:02;14.10;;;8.60;;
65375;SDS011;51976;47.332;9.404;2023-02-28T12:03:43;15.45;;;8.20;;
65375;SDS011;51976;47.332;9.404;2023-02-28T12:06:43;14.68;;;8.68;;
65375;SDS011;51976;47.332;9.404;2023-02-28T12:09:35;15.57;;;8.38;;
65375;SDS011;51976;47.332;9.404;2023-02-28T12:12:38;14.75;;;8.93;;
65375;SDS011;51976;47.332;9.404;2023-02-28T12:15:05;13.43;;;8.07;;
65375;SDS011;51976;47.332;9.404;2023-02-28T12:18:15;11.90;;;8.30;;
65375;SDS011;51976;47.332;9.404;2023-02-28T12:21:10;13.65;;;8.02;;
65375;SDS011;51976;47.332;9.404;2023-02-28T12:24:15;13.27;;;8.10;;
65375;SDS011;51976;47.332;9.404;2023-02-28T12:26:59;12.38;;;9.20;;
65375;SDS011;51976;47.332;9.404;2023-02-28T12:29:29;11.77;;;8.13;;
65375;SDS011;51976;47.332;9.404;2023-02-28T12:32:01;13.35;;;8.20;;
65375;SDS011;51976;47.332;9.404;2023-02-28T12:34:32;15.43;;;8.32;;
65375;SDS011;51976;47.332;9.404;2023-02-28T12:37:03;12.13;;;8.20;;
65375;SDS011;51976;47.332;9.404;2023-02-28T12:39:36;15.43;;;8.98;;
65375;SDS011;51976;47.332;9.404;2023-02-28T12:42:10;12.25;;;8.32;;
65375;SDS011;51976;47.332;9.404;2023-02-28T12:44:43;13.10;;;7.78;;
65375;SDS011;51976;47.332;9.404;2023-02-28T12:47:16;12.60;;;8.88;;
65375;SDS011;51976;47.332;9.404;2023-02-28T12:49:49;12.55;;;8.40;;
65375;SDS011;51976;47.332;9.404;2023-02-28T12:52:21;16.75;;;9.45;;
65375;SDS011;51976;47.332;9.404;2023-02-28T12:55:15;12.38;;;7.95;;
65375;SDS011;51976;47.332;9.404;2023-02-28T12:57:53;15.13;;;7.68;;
65375;SDS011;51976;47.332;9.404;2023-02-28T13:00:32;13.10;;;8.90;;
65375;SDS011;51976;47.332;9.404;2023-02-28T13:03:14;11.13;;;7.80;;
65375;SDS011;51976;47.332;9.404;2023-02-28T13:09:02;16.08;;;8.57;;
65375;SDS011;51976;47.332;9.404;2023-02-28T13:11:43;11.75;;;8.15;;
65375;SDS011;51976;47.332;9.404;2023-02-28T13:14:22;12.77;;;8.52;;
65375;SDS011;51976;47.332;9.404;2023-02-28T13:17:14;13.20;;;8.45;;
65375;SDS011;51976;47.332;9.404;2023-02-28T13:19:56;11.77;;;8.82;;
65375;SDS011;51976;47.332;9.404;2023-02-28T13:22:39;12.60;;;8.50;;
65375;SDS011;51976;47.332;9.404;2023-02-28T13:25:49;13.05;;;8.02;;
65375;SDS011;51976;47.332;9.404;2023-02-28T13:28:13;13.73;;;8.43;;
65375;SDS011;51976;47.332;9.404;2023-02-28T13:31:01;12.27;;;8.23;;
65375;SDS011;51976;47.332;9.404;2023-02-28T13:33:32;11.25;;;8.35;;
65375;SDS011;51976;47.332;9.404;2023-02-28T13:38:51;13.23;;;8.77;;
65375;SDS011;51976;47.332;9.404;2023-02-28T13:44:13;12.48;;;8.88;;
65375;SDS011;51976;47.332;9.404;2023-02-28T13:47:18;12.65;;;9.38;;
65375;SDS011;51976;47.332;9.404;2023-02-28T13:49:45;14.40;;;8.75;;
65375;SDS011;51976;47.332;9.404;2023-02-28T13:52:15;14.57;;;8.77;;
65375;SDS011;51976;47.332;9.404;2023-02-28T13:55:25;11.25;;;7.95;;
65375;SDS011;51976;47.332;9.404;2023-02-28T13:57:57;13.95;;;9.38;;
65375;SDS011;51976;47.332;9.404;2023-02-28T14:00:43;14.13;;;9.85;;
65375;SDS011;51976;47.332;9.404;2023-02-28T14:06:22;12.27;;;7.78;;
65375;SDS011;51976;47.332;9.404;2023-02-28T14:08:57;13.70;;;9.23;;
65375;SDS011;51976;47.332;9.404;2023-02-28T14:11:30;12.37;;;9.10;;
65375;SDS011;51976;47.332;9.404;2023-02-28T14:13:58;13.63;;;8.32;;
65375;SDS011;51976;47.332;9.404;2023-02-28T14:16:26;16.80;;;9.70;;
65375;SDS011;51976;47.332;9.404;2023-02-28T14:19:16;13.25;;;8.77;;
65375;SDS011;51976;47.332;9.404;2023-02-28T14:22:05;14.38;;;9.10;;
65375;SDS011;51976;47.332;9.404;2023-02-28T14:25:04;12.90;;;8.52;;
65375;SDS011;51976;47.332;9.404;2023-02-28T14:27:50;13.70;;;8.30;;
65375;SDS011;51976;47.332;9.404;2023-02-28T14:30:57;15.50;;;8.73;;
65375;SDS011;51976;47.332;9.404;2023-02-28T14:33:35;12.20;;;8.73;;
65375;SDS011;51976;47.332;9.404;2023-02-28T14:36:18;11.43;;;8.18;;
65375;SDS011;51976;47.332;9.404;2023-02-28T14:38:52;11.93;;;8.65;;
65375;SDS011;51976;47.332;9.404;2023-02-28T14:41:22;13.38;;;8.85;;
65375;SDS011;51976;47.332;9.404;2023-02-28T14:43:51;18.33;;;8.93;;
65375;SDS011;51976;47.332;9.404;2023-02-28T14:46:21;14.60;;;8.57;;
65375;SDS011;51976;47.332;9.404;2023-02-28T14:49:06;12.70;;;8.57;;
65375;SDS011;51976;47.332;9.404;2023-02-28T14:51:38;16.83;;;9.07;;
65375;SDS011;51976;47.332;9.404;2023-02-28T14:54:03;13.43;;;8.50;;
65375;SDS011;51976;47.332;9.404;2023-02-28T14:56:32;15.43;;;9.60;;
65375;SDS011;51976;47.332;9.404;2023-02-28T14:59:00;13.52;;;8.68;;
65375;SDS011;51976;47.332;9.404;2023-02-28T15:01:26;13.68;;;9.00;;
65375;SDS011;51976;47.332;9.404;2023-02-28T15:04:02;16.67;;;8.73;;
65375;SDS011;51976;47.332;9.404;2023-02-28T15:06:31;13.70;;;8.88;;
65375;SDS011;51976;47.332;9.404;2023-02-28T15:09:17;13.93;;;8.90;;
65375;SDS011;51976;47.332;9.404;2023-02-28T15:11:47;12.40;;;8.20;;
65375;SDS011;51976;47.332;9.404;2023-02-28T15:14:15;13.05;;;8.60;;
65375;SDS011;51976;47.332;9.404;2023-02-28T15:16:44;13.32;;;8.88;;
65375;SDS011;51976;47.332;9.404;2023-02-28T15:19:17;16.60;;;8.38;;
65375;SDS011;51976;47.332;9.404;2023-02-28T15:21:50;14.60;;;8.40;;
65375;SDS011;51976;47.332;9.404;2023-02-28T15:24:21;15.98;;;9.07;;